Time;durP1;ratioP1;P1;durP2;ratioP2;P2;SDS_P1;SDS_P2;PMS_P1;PMS_P2;Temp;Humidity;BMP_temperature;BMP_pressure;BME280_temperature;BME280_humidity;BME280_pressure;Samples;Min_cycle;Max_cycle;Signal;HPM_P1;HPM_P2
2023/08/26 00:00:07;;;;;;;65.07;34.42;;;;;;;13.08;90.00;99458.22;5011870;28;20045;-41
2023/08/26 00:02:37;;;;;;;61.38;29.42;;;;;;;13.38;90.48;99501.16;5028870;28;20067;-41
2023/08/26 00:05:03;;;;;;;51.03;27.42;;;;;;;13.36;90.91;99499.53;5025088;28;20088;-41
2023/08/26 00:07:32;;;;;;;56.22;26.33;;;;;;;13.35;91.28;99505.66;5017616;28;20132;-40
2023/08/26 00:09:58;;;;;;;52.15;26.52;;;;;;;13.35;91.55;99503.06;5025894;28;20591;-42
2023/08/26 00:12:24;;;;;;;47.78;25.30;;;;;;;13.30;91.46;99498.06;5030116;28;20095;-42
2023/08/26 00:14:50;;;;;;;52.22;25.98;;;;;;;13.33;91.82;99502.28;5029738;28;20037;-41
2023/08/26 00:17:17;;;;;;;48.15;26.23;;;;;;;13.16;91.99;99490.06;5030992;28;20054;-42
2023/08/26 00:19:44;;;;;;;47.83;26.25;;;;;;;13.29;92.36;99513.81;5027161;28;20073;-42
2023/08/26 00:22:11;;;;;;;46.35;25.65;;;;;;;13.28;92.66;99509.50;5026461;28;20471;-43
2023/08/26 00:24:37;;;;;;;51.35;26.75;;;;;;;13.26;92.91;99511.34;5028606;28;20034;-41
2023/08/26 00:27:05;;;;;;;50.75;25.63;;;;;;;13.00;93.00;99474.25;5012583;28;20538;-44
2023/08/26 00:29:32;;;;;;;49.78;26.00;;;;;;;13.24;93.12;99514.00;5028555;28;20042;-42
2023/08/26 00:31:58;;;;;;;51.25;26.55;;;;;;;13.23;93.28;99514.97;5024696;28;20041;-48
2023/08/26 00:34:24;;;;;;;48.38;25.90;;;;;;;13.22;93.36;99518.47;5051535;28;20053;-43
2023/08/26 00:36:50;;;;;;;54.72;27.77;;;;;;;13.21;93.70;99511.56;5028840;28;20049;-42
2023/08/26 00:39:16;;;;;;;52.13;27.45;;;;;;;13.21;93.77;99511.56;5029501;28;20042;-42
2023/08/26 00:41:42;;;;;;;56.40;28.05;;;;;;;13.20;93.58;99522.06;4996734;28;20098;-42
2023/08/26 00:44:09;;;;;;;58.85;30.95;;;;;;;13.18;93.89;99514.34;4993785;28;20038;-42
2023/08/26 00:46:35;;;;;;;63.80;30.10;;;;;;;13.18;93.87;99513.47;5033527;28;20053;-42
2023/08/26 00:49:01;;;;;;;58.63;29.02;;;;;;;13.14;93.93;99502.31;5045084;28;20037;-40
2023/08/26 00:51:27;;;;;;;55.10;27.05;;;;;;;13.16;94.00;99510.94;4995821;28;20572;-41
2023/08/26 00:53:53;;;;;;;53.88;28.88;;;;;;;13.04;94.13;99488.84;5055742;28;20041;-43
2023/08/26 00:56:21;;;;;;;53.53;26.35;;;;;;;13.16;94.28;99518.75;5023996;28;20104;-41
2023/08/26 00:58:47;;;;;;;54.28;26.92;;;;;;;12.97;94.11;99484.84;5009648;28;20079;-41
2023/08/26 01:01:13;;;;;;;50.78;24.02;;;;;;;13.11;94.38;99511.16;5029487;28;20038;-42
2023/08/26 01:03:41;;;;;;;57.22;26.17;;;;;;;13.13;94.56;99511.09;5005007;28;20115;-42
2023/08/26 01:06:07;;;;;;;48.42;24.88;;;;;;;13.00;94.84;99484.69;5026201;28;20053;-43
2023/08/26 01:08:36;;;;;;;48.47;22.50;;;;;;;13.00;94.61;99494.28;5023392;28;20038;-41
2023/08/26 01:11:18;;;;;;;44.45;22.30;;;;;;;13.06;94.92;99500.06;5023391;28;20064;-41
2023/08/26 01:14:19;;;;;;;50.17;21.75;;;;;;;13.09;95.24;99514.72;5022104;28;20148;-41
2023/08/26 01:16:45;;;;;;;43.22;21.38;;;;;;;13.05;95.07;99505.34;4998821;28;20075;-41
2023/08/26 01:19:27;;;;;;;47.45;21.98;;;;;;;13.04;95.28;99512.31;5027546;28;20041;-41
2023/08/26 01:21:55;;;;;;;43.83;18.85;;;;;;;12.99;95.54;99506.47;5027578;28;20096;-41
2023/08/26 01:24:21;;;;;;;47.45;20.23;;;;;;;13.00;95.62;99510.78;5042008;28;20524;-41
2023/08/26 01:26:47;;;;;;;49.42;19.75;;;;;;;12.97;95.50;99508.31;5028768;28;20148;-42
2023/08/26 01:29:13;;;;;;;51.38;20.05;;;;;;;12.97;95.61;99512.69;5029684;28;20564;-40
2023/08/26 01:31:42;;;;;;;42.17;20.20;;;;;;;12.96;95.96;99508.38;5019309;28;20421;-41
2023/08/26 01:34:18;;;;;;;50.37;19.53;;;;;;;12.94;96.06;99505.84;5020949;28;20680;-41
2023/08/26 01:36:44;;;;;;;49.20;19.88;;;;;;;12.94;95.91;99513.66;5008693;28;20371;-41
2023/08/26 01:39:15;;;;;;;51.28;19.63;;;;;;;12.91;96.48;99506.00;5028537;28;20045;-42
2023/08/26 01:41:46;;;;;;;31.30;13.80;;;;;;;12.91;96.56;99513.81;5029009;28;20141;-41
2023/08/26 01:44:12;;;;;;;45.35;18.55;;;;;;;12.77;96.54;99487.50;5020420;28;20049;-41
2023/08/26 01:46:39;;;;;;;52.17;20.13;;;;;;;12.95;96.64;99506.69;4996091;28;20054;-41
2023/08/26 01:49:05;;;;;;;42.42;18.98;;;;;;;12.93;97.09;99511.13;5020967;28;20437;-41
2023/08/26 01:51:32;;;;;;;40.28;17.42;;;;;;;12.93;96.96;99511.97;5021618;28;20045;-41
2023/08/26 01:53:58;;;;;;;43.25;17.08;;;;;;;12.77;97.09;99487.50;5011827;28;20077;-41
2023/08/26 01:56:25;;;;;;;41.72;17.23;;;;;;;12.90;97.30;99503.44;5027089;28;20049;-41
2023/08/26 01:58:51;;;;;;;38.03;16.00;;;;;;;12.93;97.22;99516.34;5028354;28;20532;-43
2023/08/26 02:01:17;;;;;;;37.17;16.40;;;;;;;12.77;97.47;99486.69;5027146;28;20183;-42
2023/08/26 02:03:43;;;;;;;37.40;15.63;;;;;;;12.94;97.42;99520.66;5011442;28;20081;-41
2023/08/26 02:06:10;;;;;;;34.33;14.93;;;;;;;12.94;97.52;99521.50;5024184;28;20113;-42
2023/08/26 02:08:36;;;;;;;34.38;15.00;;;;;;;12.94;97.57;99518.03;5020351;28;20493;-41
2023/08/26 02:11:01;;;;;;;38.92;15.52;;;;;;;12.95;97.60;99515.38;5027970;28;20033;-42
2023/08/26 02:13:28;;;;;;;37.10;15.25;;;;;;;12.96;97.52;99519.69;5027588;28;20053;-42
2023/08/26 02:15:58;;;;;;;39.83;15.55;;;;;;;12.95;97.53;99517.97;5027148;28;20041;-41
2023/08/26 02:18:24;;;;;;;33.95;14.32;;;;;;;12.92;97.64;99517.28;5010796;28;20084;-41
2023/08/26 02:20:50;;;;;;;34.28;14.52;;;;;;;12.81;98.05;99493.44;5025327;28;20103;-40
2023/08/26 02:23:16;;;;;;;35.45;14.25;;;;;;;12.96;97.77;99524.91;4994025;28;20045;-41
2023/08/26 02:25:42;;;;;;;30.75;13.48;;;;;;;12.96;98.16;99524.91;5027617;28;20570;-40
2023/08/26 02:28:08;;;;;;;35.20;14.38;;;;;;;12.67;98.10;99470.59;5027418;28;20091;-40
2023/08/26 02:30:34;;;;;;;35.75;14.10;;;;;;;12.90;98.40;99495.63;5011028;28;20103;-41
2023/08/26 02:33:06;;;;;;;31.67;14.02;;;;;;;12.99;98.46;99522.13;5037061;28;20072;-40
2023/08/26 02:35:36;;;;;;;27.75;12.45;;;;;;;13.01;98.32;99522.91;5006735;28;20103;-42
2023/08/26 02:38:02;;;;;;;26.95;11.60;;;;;;;13.04;98.26;99520.16;5026876;28;20053;-40
2023/08/26 02:40:28;;;;;;;25.45;12.32;;;;;;;13.07;98.25;99512.19;5027460;28;20574;-40
2023/08/26 02:42:56;;;;;;;23.17;11.57;;;;;;;13.11;98.14;99516.38;5027253;28;20048;-41
2023/08/26 02:45:22;;;;;;;30.85;12.88;;;;;;;13.13;97.82;99509.34;5010716;28;20041;-40
2023/08/26 02:47:48;;;;;;;21.60;10.45;;;;;;;13.15;97.81;99511.84;5048169;28;20158;-41
2023/08/26 02:50:16;;;;;;;21.95;10.48;;;;;;;13.14;97.49;99511.00;5007618;28;20041;-41
2023/08/26 02:52:42;;;;;;;24.95;11.07;;;;;;;13.20;97.26;99522.06;4989847;28;20040;-42
2023/08/26 02:55:09;;;;;;;18.73;10.57;;;;;;;13.05;96.65;99495.75;4993108;28;20075;-42
2023/08/26 02:57:36;;;;;;;22.92;11.25;;;;;;;13.23;96.14;99521.94;5028339;28;20512;-41
2023/08/26 03:00:04;;;;;;;23.63;11.18;;;;;;;13.23;95.55;99521.94;5016116;28;20063;-41
2023/08/26 03:02:34;;;;;;;16.70;9.25;;;;;;;13.21;94.94;99521.16;5048674;28;20090;-41
2023/08/26 03:05:18;;;;;;;28.35;12.48;;;;;;;13.23;94.63;99524.53;5025474;28;20119;-42
2023/08/26 03:07:44;;;;;;;25.45;12.77;;;;;;;13.24;94.34;99527.06;5035924;28;20058;-43
2023/08/26 03:10:10;;;;;;;32.85;12.98;;;;;;;13.29;94.14;99535.56;5018064;28;20532;-41
2023/08/26 03:12:36;;;;;;;22.20;11.85;;;;;;;13.04;93.42;99496.66;5025748;28;20085;-42
2023/08/26 03:15:02;;;;;;;29.77;12.48;;;;;;;13.29;93.12;99532.09;5022201;28;20037;-42
2023/08/26 03:17:30;;;;;;;28.97;12.23;;;;;;;13.32;92.89;99529.31;5007965;28;20434;-41
2023/08/26 03:19:56;;;;;;;27.63;13.05;;;;;;;13.38;92.30;99536.88;5020410;28;20296;-42
2023/08/26 03:22:22;;;;;;;20.25;11.05;;;;;;;13.44;91.95;99537.44;5022408;28;20111;-43
2023/08/26 03:24:49;;;;;;;25.17;10.15;;;;;;;13.46;91.39;99532.09;5010277;28;20051;-42
2023/08/26 03:27:15;;;;;;;20.15;11.48;;;;;;;13.52;91.06;99534.44;5026374;28;20525;-40
2023/08/26 03:29:41;;;;;;;22.08;10.98;;;;;;;13.55;90.55;99535.09;5025486;28;20051;-41
2023/08/26 03:32:07;;;;;;;19.25;10.70;;;;;;;13.60;90.49;99529.69;5026229;28;20087;-42
2023/08/26 03:34:33;;;;;;;21.85;10.55;;;;;;;13.67;90.18;99535.44;5022999;28;20049;-41
2023/08/26 03:36:59;;;;;;;19.65;10.48;;;;;;;13.50;89.82;99499.72;5026150;28;20037;-43
2023/08/26 03:39:24;;;;;;;20.00;10.98;;;;;;;13.70;89.17;99530.06;5020189;28;20424;-41
2023/08/26 03:41:50;;;;;;;21.60;10.40;;;;;;;13.73;88.71;99527.31;5026614;28;20571;-41
2023/08/26 03:44:17;;;;;;;18.98;9.93;;;;;;;13.62;88.44;99506.94;4993444;28;20488;-40
2023/08/26 03:46:43;;;;;;;20.42;10.40;;;;;;;13.80;88.04;99524.31;4993693;28;20060;-41
2023/08/26 03:49:09;;;;;;;22.33;11.38;;;;;;;13.84;87.66;99531.06;5021715;28;20042;-41
2023/08/26 03:51:35;;;;;;;16.45;10.23;;;;;;;13.86;87.32;99521.41;4992912;28;20090;-43
2023/08/26 03:54:01;;;;;;;17.83;10.23;;;;;;;13.75;86.77;99502.81;5005665;28;20047;-42
2023/08/26 03:56:28;;;;;;;18.38;9.75;;;;;;;13.92;86.03;99523.69;5025105;28;20045;-42
2023/08/26 03:58:56;;;;;;;16.17;9.50;;;;;;;13.99;85.41;99519.00;5027543;28;20041;-44
2023/08/26 04:01:23;;;;;;;23.27;10.65;;;;;;;14.05;84.56;99516.06;4991363;28;20119;-48
2023/08/26 04:03:52;;;;;;;16.85;9.75;;;;;;;14.13;83.98;99519.13;5026378;28;20045;-42
2023/08/26 04:06:18;;;;;;;;;;;;;;;14.22;83.73;99513.44;5026452;28;20049;-41
2023/08/26 04:08:45;;;;;;;18.33;10.18;;;;;;;14.13;83.02;99495.59;5021820;28;19923;-42
2023/08/26 04:11:11;;;;;;;19.13;8.60;;;;;;;14.42;82.18;99525.50;5047809;28;20468;-41
2023/08/26 04:13:38;;;;;;;11.70;8.05;;;;;;;14.41;81.22;99501.13;5026341;28;20663;-41
2023/08/26 04:16:06;;;;;;;12.45;8.00;;;;;;;14.57;79.80;99493.31;5005907;28;20132;-41
2023/08/26 04:18:32;;;;;;;13.13;8.18;;;;;;;14.79;78.54;99495.59;5009908;28;20490;-42
2023/08/26 04:20:59;;;;;;;11.82;7.22;;;;;;;15.11;77.73;99512.16;5026468;28;20517;-41
2023/08/26 04:23:24;;;;;;;11.82;7.72;;;;;;;15.32;76.98;99516.22;4990441;28;20048;-42
2023/08/26 04:25:53;;;;;;;10.75;7.15;;;;;;;15.34;75.73;99485.50;5010141;28;20049;-43
2023/08/26 04:28:19;;;;;;;;;;;;;;;15.70;75.16;99519.28;5025483;28;20481;-42
2023/08/26 04:30:45;;;;;;;14.98;6.63;;;;;;;15.67;74.55;99485.38;5026553;28;19918;-42
2023/08/26 04:33:11;;;;;;;8.02;6.57;;;;;;;15.68;72.29;99480.06;5013546;28;20116;-44
2023/08/26 04:35:38;;;;;;;12.00;6.18;;;;;;;15.95;71.24;99503.81;5012651;28;20160;-43
2023/08/26 04:38:04;;;;;;;9.15;5.80;;;;;;;16.05;69.82;99504.13;5012143;28;20068;-42
2023/08/26 04:40:30;;;;;;;9.75;5.97;;;;;;;15.95;68.96;99482.84;5029740;28;20037;-43
2023/08/26 04:42:56;;;;;;;8.25;5.70;;;;;;;16.00;67.98;99478.16;5030940;28;20132;-43
2023/08/26 04:45:24;;;;;;;7.47;5.13;;;;;;;16.22;67.84;99514.44;5013512;28;20528;-44
2023/08/26 04:47:52;;;;;;;10.73;5.93;;;;;;;16.28;67.08;99513.22;5028967;28;20037;-42
2023/08/26 04:50:18;;;;;;;6.95;5.47;;;;;;;16.33;66.57;99517.25;5028007;28;20556;-42
2023/08/26 04:52:44;;;;;;;6.45;5.22;;;;;;;16.29;66.32;99478.16;5010524;28;20111;-42
2023/08/26 04:55:10;;;;;;;11.77;5.03;;;;;;;16.57;65.76;99493.06;5028469;28;20425;-42
2023/08/26 04:57:37;;;;;;;8.25;4.72;;;;;;;16.58;65.02;99477.25;5013062;28;20179;-43
2023/08/26 05:00:10;;;;;;;10.27;5.03;;;;;;;16.70;62.89;99494.00;5013034;28;20472;-42
2023/08/26 05:02:38;;;;;;;11.07;5.45;;;;;;;16.89;62.27;99507.69;5013870;28;20041;-43
2023/08/26 05:05:05;;;;;;;10.10;4.82;;;;;;;16.92;60.90;99505.72;5008512;28;20133;-41
2023/08/26 05:07:32;;;;;;;6.28;3.83;;;;;;;16.97;60.58;99499.31;5018722;28;20061;-41
2023/08/26 05:09:59;;;;;;;7.53;3.88;;;;;;;17.01;60.25;99467.50;5018259;28;20037;-41
2023/08/26 05:12:26;;;;;;;7.57;4.50;;;;;;;17.24;59.50;99485.28;5009562;28;20045;-42
2023/08/26 05:14:52;;;;;;;8.68;4.78;;;;;;;17.38;59.05;99482.56;5011918;28;20180;-40
2023/08/26 05:17:18;;;;;;;6.70;3.88;;;;;;;17.67;58.98;99488.59;5025805;28;20075;-45
2023/08/26 05:19:44;;;;;;;6.13;4.00;;;;;;;17.89;58.66;99495.06;5011599;28;20041;-41
2023/08/26 05:22:10;;;;;;;9.57;4.25;;;;;;;18.09;58.28;99486.66;5007408;28;20038;-44
2023/08/26 05:24:36;;;;;;;9.10;4.00;;;;;;;18.20;57.99;99490.22;5024455;28;20045;-41
2023/08/26 05:27:03;;;;;;;7.00;3.50;;;;;;;18.19;57.27;99483.28;5007158;28;20179;-42
2023/08/26 05:29:30;;;;;;;4.85;3.40;;;;;;;18.24;56.94;99487.38;5028686;28;20052;-40
2023/08/26 05:31:56;;;;;;;8.73;3.58;;;;;;;18.31;56.81;99486.03;5028798;28;20045;-41
2023/08/26 05:34:22;;;;;;;4.68;3.58;;;;;;;18.31;56.91;99489.50;4995421;28;20424;-43
2023/08/26 05:36:49;;;;;;;5.15;3.10;;;;;;;18.21;56.50;99484.00;5029678;28;20049;-41
2023/08/26 05:39:15;;;;;;;6.68;3.50;;;;;;;18.26;56.20;99477.59;5027429;28;20044;-41
2023/08/26 05:41:41;;;;;;;5.07;3.40;;;;;;;18.33;56.34;99481.47;5026133;28;20067;-43
2023/08/26 05:44:07;;;;;;;5.25;3.25;;;;;;;18.36;56.11;99454.97;5029308;28;20533;-41
2023/08/26 05:46:33;;;;;;;5.65;3.30;;;;;;;18.49;55.93;99482.94;5027930;28;20037;-42
2023/08/26 05:48:59;;;;;;;8.63;3.35;;;;;;;18.54;55.93;99480.84;5012015;28;20045;-41
2023/08/26 05:51:27;;;;;;;6.93;3.20;;;;;;;18.40;55.60;99453.78;5025484;28;20037;-43
2023/08/26 05:53:53;;;;;;;7.07;3.05;;;;;;;18.53;55.62;99479.13;5011033;28;20043;-43
2023/08/26 05:56:20;;;;;;;8.15;3.60;;;;;;;18.54;55.66;99480.00;5011484;28;20100;-42
2023/08/26 05:58:47;;;;;;;5.35;3.13;;;;;;;18.57;55.54;99474.56;5027984;28;20469;-42
2023/08/26 06:01:13;;;;;;;5.97;3.42;;;;;;;18.44;55.60;99457.88;5029671;28;20037;-41
2023/08/26 06:03:39;;;;;;;7.43;3.47;;;;;;;18.51;55.72;99465.25;5011255;28;20424;-42
2023/08/26 06:06:06;;;;;;;4.70;3.13;;;;;;;18.68;55.82;99486.97;5026237;28;20113;-43
2023/08/26 06:08:36;;;;;;;6.03;3.75;;;;;;;18.86;55.74;99494.38;5003396;28;20060;-42
2023/08/26 06:11:02;;;;;;;7.10;3.60;;;;;;;18.88;55.63;99486.38;5027418;28;20464;-41
2023/08/26 06:13:29;;;;;;;6.75;3.65;;;;;;;18.94;55.39;99485.94;5033944;28;20174;-41
2023/08/26 06:15:58;;;;;;;9.18;4.50;;;;;;;18.88;55.43;99473.22;5010277;28;20064;-41
2023/08/26 06:18:25;;;;;;;8.30;3.90;;;;;;;19.10;54.93;99485.69;5041811;28;20041;-41
2023/08/26 06:20:51;;;;;;;11.20;4.18;;;;;;;19.25;54.85;99474.88;5008097;28;20049;-42
2023/08/26 06:23:20;;;;;;;7.03;3.97;;;;;;;19.34;54.12;99454.88;5023480;28;20505;-43
2023/08/26 06:25:57;;;;;;;8.60;4.30;;;;;;;19.49;53.74;99469.59;5011304;28;20060;-43
2023/08/26 06:28:25;;;;;;;7.05;3.95;;;;;;;19.64;53.25;99471.09;5034267;28;20118;-41
2023/08/26 06:31:00;;;;;;;7.45;4.03;;;;;;;19.98;52.71;99479.09;5011723;28;20536;-45
2023/08/26 06:33:30;;;;;;;8.32;3.88;;;;;;;20.46;51.63;99471.88;5048966;28;20037;-45
2023/08/26 06:35:56;;;;;;;7.88;4.18;;;;;;;20.60;51.27;99434.63;5010553;28;20513;-43
2023/08/26 06:38:23;;;;;;;6.90;3.53;;;;;;;20.72;50.46;99454.81;5024732;28;20048;-43
2023/08/26 06:40:54;;;;;;;6.43;3.67;;;;;;;20.58;49.68;99469.09;5010462;28;20060;-41
2023/08/26 06:43:20;;;;;;;8.88;2.80;;;;;;;20.52;49.11;99466.91;5045033;28;20054;-43
2023/08/26 06:45:46;;;;;;;4.22;3.42;;;;;;;21.03;48.31;99466.41;5010265;28;20045;-42
2023/08/26 06:48:12;;;;;;;7.85;3.63;;;;;;;21.32;47.52;99450.81;5027323;28;20603;-42
2023/08/26 06:50:39;;;;;;;7.45;3.13;;;;;;;21.88;47.00;99461.94;5026998;28;20045;-40
2023/08/26 06:53:05;;;;;;;8.45;2.97;;;;;;;22.30;45.99;99468.09;5010353;28;20484;-41
2023/08/26 06:55:31;;;;;;;9.85;3.05;;;;;;;22.24;45.34;99464.16;4992556;28;20071;-44
2023/08/26 06:57:57;;;;;;;5.35;2.97;;;;;;;22.23;45.25;99465.16;5023007;28;20116;-43
2023/08/26 07:00:23;;;;;;;8.38;3.38;;;;;;;22.17;44.86;99468.31;5010255;28;20053;-44
2023/08/26 07:02:49;;;;;;;5.50;2.70;;;;;;;22.32;44.07;99435.22;5009677;28;20047;-44
2023/08/26 07:05:15;;;;;;;5.65;3.00;;;;;;;22.61;43.65;99453.03;5027267;28;20049;-44
2023/08/26 07:07:41;;;;;;;8.45;2.85;;;;;;;23.20;42.57;99461.84;5029375;28;20041;-44
2023/08/26 07:10:07;;;;;;;5.28;2.67;;;;;;;23.48;41.88;99462.88;5021828;28;20052;-45
2023/08/26 07:12:33;;;;;;;5.57;2.83;;;;;;;23.80;41.39;99465.22;5048787;28;20045;-41
2023/08/26 07:14:59;;;;;;;9.13;3.15;;;;;;;23.75;41.13;99456.00;5022556;28;20041;-40
2023/08/26 07:17:25;;;;;;;8.55;3.10;;;;;;;23.94;40.80;99451.50;5025205;28;20041;-41
2023/08/26 07:19:51;;;;;;;4.95;2.80;;;;;;;24.45;40.26;99451.09;5007228;28;20048;-45
2023/08/26 07:22:16;;;;;;;4.38;2.58;;;;;;;24.89;39.73;99449.50;5011360;28;20417;-46
2023/08/26 07:24:42;;;;;;;4.93;2.42;;;;;;;25.13;39.20;99456.91;5021561;28;20068;-44
2023/08/26 07:27:09;;;;;;;6.40;2.90;;;;;;;25.15;38.71;99462.91;5026740;28;20045;-44
2023/08/26 07:29:35;;;;;;;6.00;2.97;;;;;;;24.77;38.28;99445.34;5024911;28;20553;-42
2023/08/26 07:32:01;;;;;;;9.18;2.75;;;;;;;24.60;38.74;99459.41;5021196;28;20124;-43
2023/08/26 07:34:26;;;;;;;7.78;2.75;;;;;;;24.28;38.84;99461.66;5006166;28;20041;-40
2023/08/26 07:36:52;;;;;;;5.45;3.05;;;;;;;23.79;39.93;99465.38;5044226;28;20034;-42
2023/08/26 07:39:20;;;;;;;7.45;2.83;;;;;;;23.28;40.52;99450.56;5027087;28;20053;-41
2023/08/26 07:41:46;;;;;;;9.30;2.63;;;;;;;22.82;41.21;99460.94;5019758;28;20079;-40
2023/08/26 07:44:12;;;;;;;5.30;2.42;;;;;;;22.20;42.01;99427.47;5026885;28;20054;-40
2023/08/26 07:46:38;;;;;;;3.72;2.75;;;;;;;22.17;42.66;99448.94;5027270;28;20048;-41
2023/08/26 07:49:05;;;;;;;9.98;2.67;;;;;;;21.79;43.54;99445.06;5026461;28;20464;-40
2023/08/26 07:51:31;;;;;;;6.05;2.65;;;;;;;21.73;44.10;99445.56;5019571;28;20517;-42
2023/08/26 07:53:57;;;;;;;5.00;2.55;;;;;;;21.41;44.32;99420.94;5025867;28;20096;-41
2023/08/26 07:56:23;;;;;;;7.22;2.67;;;;;;;21.33;44.88;99449.84;5026491;28;20037;-41
2023/08/26 07:58:49;;;;;;;4.95;2.60;;;;;;;21.25;45.01;99431.16;5027948;28;20056;-40
2023/08/26 08:01:16;;;;;;;6.20;2.78;;;;;;;21.13;45.51;99433.81;5026339;28;20040;-41
2023/08/26 08:03:42;;;;;;;11.65;2.67;;;;;;;21.31;45.51;99433.25;5022842;28;20116;-39
2023/08/26 08:06:08;;;;;;;11.95;3.40;;;;;;;21.35;45.64;99429.44;5030104;28;20061;-41
2023/08/26 08:08:34;;;;;;;9.15;3.53;;;;;;;21.18;45.73;99393.78;5029863;28;20095;-40
2023/08/26 08:11:00;;;;;;;7.75;2.40;;;;;;;21.05;46.03;99409.78;5010006;28;20486;-41
2023/08/26 08:13:26;;;;;;;5.72;2.30;;;;;;;20.99;46.03;99428.78;5030176;28;20045;-40
2023/08/26 08:15:52;;;;;;;2.80;1.90;;;;;;;20.90;46.41;99424.25;5030413;28;20560;-40
2023/08/26 08:18:18;;;;;;;4.05;2.33;;;;;;;20.79;46.59;99432.19;5029432;28;20099;-42
2023/08/26 08:20:43;;;;;;;11.65;2.53;;;;;;;20.72;46.45;99425.75;5030007;28;20049;-41
2023/08/26 08:23:09;;;;;;;6.72;2.33;;;;;;;20.71;46.95;99432.81;5030106;28;20033;-41
2023/08/26 08:25:35;;;;;;;5.70;3.10;;;;;;;20.76;47.09;99419.25;5025058;28;20064;-41
2023/08/26 08:28:02;;;;;;;7.88;2.58;;;;;;;20.73;47.35;99418.66;5010128;28;20045;-43
2023/08/26 08:30:28;;;;;;;8.20;2.70;;;;;;;20.73;47.64;99414.19;5029363;28;20045;-40
2023/08/26 08:32:54;;;;;;;8.50;2.72;;;;;;;20.70;47.60;99414.44;5029164;28;20034;-39
2023/08/26 08:35:20;;;;;;;7.95;3.30;;;;;;;20.69;47.59;99416.25;5012741;28;20057;-41
2023/08/26 08:37:46;;;;;;;4.72;2.63;;;;;;;20.58;48.07;99412.78;5029535;28;20040;-40
2023/08/26 08:40:13;;;;;;;10.13;3.17;;;;;;;20.44;48.55;99384.81;5027349;28;20045;-40
2023/08/26 08:42:41;;;;;;;7.05;3.10;;;;;;;20.26;48.75;99371.25;5030451;28;20037;-40
2023/08/26 08:45:08;;;;;;;6.80;3.17;;;;;;;20.47;48.94;99400.41;5030864;28;20143;-41
2023/08/26 08:47:34;;;;;;;9.80;2.78;;;;;;;20.39;49.28;99404.63;5012283;28;20041;-40
2023/08/26 08:50:01;;;;;;;8.60;3.15;;;;;;;20.24;49.71;99406.66;5018139;28;20049;-40
2023/08/26 08:52:32;;;;;;;6.55;3.00;;;;;;;19.94;50.17;99380.03;5023751;28;20164;-40
2023/08/26 08:54:58;;;;;;;6.63;3.00;;;;;;;19.91;50.32;99374.97;5024128;28;20053;-41
2023/08/26 08:57:29;;;;;;;7.45;3.25;;;;;;;20.07;50.95;99405.34;5025148;28;20119;-39
2023/08/26 08:59:57;;;;;;;13.60;3.17;;;;;;;20.13;51.21;99401.38;5009538;28;20057;-40
2023/08/26 09:02:23;;;;;;;8.13;2.60;;;;;;;20.11;51.17;99400.66;5024262;28;20042;-40
2023/08/26 09:04:49;;;;;;;12.48;2.95;;;;;;;19.82;51.22;99353.63;5030178;28;20684;-41
2023/08/26 09:07:15;;;;;;;6.13;3.30;;;;;;;19.86;51.15;99356.84;5030387;28;20209;-40
2023/08/26 09:09:41;;;;;;;8.10;2.80;;;;;;;20.29;50.98;99407.13;5026175;28;20041;-41
2023/08/26 09:12:07;;;;;;;7.75;2.58;;;;;;;20.42;50.84;99414.94;5025874;28;20060;-41
2023/08/26 09:14:33;;;;;;;6.35;2.70;;;;;;;20.45;50.82;99397.09;5030332;28;20037;-41
2023/08/26 09:17:17;;;;;;;5.60;2.40;;;;;;;20.62;50.86;99406.31;5022591;28;20429;-43
2023/08/26 09:19:56;;;;;;;5.70;2.78;;;;;;;20.67;50.91;99406.78;5029913;28;20041;-43
2023/08/26 09:22:27;;;;;;;6.90;2.50;;;;;;;20.60;51.26;99401.13;5029927;28;20037;-43
2023/08/26 09:24:56;;;;;;;6.90;2.80;;;;;;;20.55;51.84;99402.47;5027705;28;20128;-40
2023/08/26 09:27:22;;;;;;;4.85;3.20;;;;;;;20.48;51.98;99411.81;5019820;28;20132;-41
2023/08/26 09:29:48;;;;;;;4.78;2.83;;;;;;;20.28;52.70;99401.00;5028884;28;20152;-41
2023/08/26 09:32:14;;;;;;;8.50;2.97;;;;;;;19.97;53.07;99359.50;5011987;28;20046;-40
2023/08/26 09:34:40;;;;;;;7.97;3.08;;;;;;;20.19;52.83;99396.47;5028467;28;20045;-40
2023/08/26 09:37:09;;;;;;;10.98;2.67;;;;;;;20.18;53.12;99404.50;5021463;28;20065;-42
2023/08/26 09:39:45;;;;;;;7.82;2.63;;;;;;;20.16;53.44;99401.97;5028638;28;20182;-42
2023/08/26 09:42:12;;;;;;;10.10;2.50;;;;;;;20.16;53.24;99407.25;5035785;28;20042;-40
2023/08/26 09:44:40;;;;;;;11.70;2.70;;;;;;;19.95;53.96;99408.91;5052767;28;20083;-42
2023/08/26 09:47:06;;;;;;;3.45;2.17;;;;;;;19.81;54.21;99403.88;5029861;28;20655;-41
2023/08/26 09:49:34;;;;;;;4.15;2.28;;;;;;;19.74;54.48;99403.47;5022630;28;20429;-40
2023/08/26 09:52:00;;;;;;;5.43;2.00;;;;;;;19.62;54.68;99401.81;5011806;28;20045;-40
2023/08/26 09:54:28;;;;;;;7.43;2.33;;;;;;;19.49;55.14;99392.28;5029397;28;20041;-40
2023/08/26 09:56:54;;;;;;;4.20;2.20;;;;;;;19.48;55.16;99388.81;5011561;28;20033;-39
2023/08/26 09:59:20;;;;;;;3.70;2.25;;;;;;;19.48;55.19;99395.88;5029483;28;20376;-42
2023/08/26 10:01:46;;;;;;;3.13;1.92;;;;;;;19.26;55.27;99359.72;5021886;28;20126;-43
2023/08/26 10:04:20;;;;;;;3.28;2.05;;;;;;;19.44;55.57;99400.50;5026202;28;20406;-40
2023/08/26 10:06:55;;;;;;;2.67;1.90;;;;;;;19.34;55.95;99394.25;5029131;28;20045;-40
2023/08/26 10:09:28;;;;;;;4.25;2.10;;;;;;;19.23;56.29;99400.31;5027930;28;20090;-41
2023/08/26 10:11:55;;;;;;;7.25;2.13;;;;;;;19.17;56.50;99398.13;5017611;28;20042;-41
2023/08/26 10:14:24;;;;;;;3.15;1.90;;;;;;;19.21;56.82;99396.13;5008422;28;20116;-40
2023/08/26 10:16:51;;;;;;;5.30;2.03;;;;;;;19.13;56.82;99391.41;5023654;28;20421;-40
2023/08/26 10:19:17;;;;;;;3.03;2.20;;;;;;;19.17;56.71;99397.28;5011574;28;20037;-41
2023/08/26 10:21:43;;;;;;;8.07;2.42;;;;;;;19.17;56.92;99397.28;5029107;28;20624;-41
2023/08/26 10:24:09;;;;;;;4.60;2.40;;;;;;;19.20;56.91;99387.38;5025698;28;20037;-39
2023/08/26 10:26:35;;;;;;;5.90;2.20;;;;;;;19.27;56.78;99372.78;5028033;28;20068;-41
2023/08/26 10:29:01;;;;;;;5.28;2.00;;;;;;;19.23;56.69;99371.31;5028729;28;20041;-40
2023/08/26 10:31:35;;;;;;;3.80;2.17;;;;;;;19.26;56.44;99367.63;5010815;28;20056;-41
2023/08/26 10:34:07;;;;;;;3.03;1.90;;;;;;;19.22;56.41;99369.63;5027662;28;20040;-41
2023/08/26 10:36:38;;;;;;;4.32;1.92;;;;;;;19.11;56.15;99361.69;5027186;28;20041;-42
2023/08/26 10:39:13;;;;;;;4.93;1.95;;;;;;;19.20;56.01;99381.25;5021619;28;20061;-42
2023/08/26 10:41:39;;;;;;;4.50;1.77;;;;;;;19.18;55.95;99376.09;5051380;28;20037;-41
2023/08/26 10:44:05;;;;;;;3.05;2.00;;;;;;;19.19;56.13;99376.94;5010924;28;20041;-39
2023/08/26 10:46:32;;;;;;;4.05;1.90;;;;;;;19.15;56.09;99367.59;5027162;28;20048;-40
2023/08/26 10:49:03;;;;;;;5.75;2.20;;;;;;;18.94;55.95;99352.41;5011050;28;20049;-41
2023/08/26 10:51:36;;;;;;;6.82;2.03;;;;;;;19.12;56.01;99371.28;5028427;28;20041;-41
2023/08/26 10:54:05;;;;;;;4.57;2.15;;;;;;;19.18;56.30;99373.47;5018872;28;20100;-40
2023/08/26 10:56:37;;;;;;;5.82;2.20;;;;;;;19.21;56.42;99377.69;5027321;28;20029;-40
2023/08/26 10:59:03;;;;;;;3.38;2.17;;;;;;;19.22;56.51;99381.97;5027443;28;20055;-41
2023/08/26 11:01:36;;;;;;;5.35;2.65;;;;;;;19.06;56.33;99340.09;5028323;28;20095;-40
2023/08/26 11:04:06;;;;;;;5.35;2.33;;;;;;;19.14;56.18;99337.75;5028256;28;20037;-40
2023/08/26 11:06:39;;;;;;;3.13;2.22;;;;;;;19.45;56.25;99378.50;5024737;28;20099;-42
2023/08/26 11:09:05;;;;;;;4.07;2.50;;;;;;;19.59;55.88;99370.38;5020532;28;20065;-42
2023/08/26 11:11:32;;;;;;;6.60;2.30;;;;;;;19.66;55.82;99371.59;5010715;28;20175;-44
2023/08/26 11:13:58;;;;;;;5.50;2.80;;;;;;;19.83;55.55;99378.22;5027138;28;20034;-41
2023/08/26 11:16:25;;;;;;;3.72;2.53;;;;;;;19.82;55.50;99369.47;5005778;28;20433;-40
2023/08/26 11:18:54;;;;;;;6.88;2.40;;;;;;;19.65;55.49;99326.88;5028298;28;20049;-41
2023/08/26 11:21:22;;;;;;;3.10;2.10;;;;;;;19.82;55.19;99329.03;5025902;28;20068;-40
2023/08/26 11:23:48;;;;;;;4.70;2.30;;;;;;;19.97;55.24;99367.41;5018796;28;20048;-41
2023/08/26 11:26:20;;;;;;;5.28;2.50;;;;;;;19.69;55.49;99352.88;5026820;28;20045;-41